createdAt,value
2023-08-12T00:02:10.699Z,12.45
2023-08-12T00:04:37.475Z,15.20
2023-08-12T00:07:04.332Z,12.48
2023-08-12T00:09:31.096Z,10.95
2023-08-12T00:11:58.005Z,14.25
2023-08-12T00:14:25.511Z,14.45
2023-08-12T00:16:52.651Z,12.07
2023-08-12T00:19:19.838Z,14.90
2023-08-12T00:21:46.785Z,13.50
2023-08-12T00:24:13.746Z,12.70
2023-08-12T00:26:40.831Z,10.05
2023-08-12T00:29:07.668Z,12.20
2023-08-12T00:31:34.574Z,16.67
2023-08-12T00:34:01.545Z,10.57
2023-08-12T00:36:28.551Z,13.40
2023-08-12T00:38:55.668Z,15.93
2023-08-12T00:41:24.234Z,11.35
2023-08-12T00:43:51.155Z,12.15
2023-08-12T00:46:18.644Z,11.85
2023-08-12T00:48:45.617Z,14.65
2023-08-12T00:51:14.548Z,14.60
2023-08-12T00:53:42.235Z,10.55
2023-08-12T00:56:09.129Z,13.43
2023-08-12T00:58:36.231Z,9.75
2023-08-12T01:01:03.057Z,12.60
2023-08-12T01:03:30.057Z,12.80
2023-08-12T01:05:59.328Z,9.52
2023-08-12T01:08:30.251Z,11.40
2023-08-12T01:11:13.884Z,10.43
2023-08-12T01:13:53.720Z,8.60
2023-08-12T01:16:22.433Z,9.18
2023-08-12T01:18:50.734Z,10.07
2023-08-12T01:21:20.009Z,12.13
2023-08-12T01:23:47.662Z,10.80
2023-08-12T01:26:14.717Z,11.95
2023-08-12T01:28:41.968Z,12.48
2023-08-12T01:31:39.836Z,16.63
2023-08-12T01:34:17.107Z,13.60
2023-08-12T01:36:48.224Z,10.27
2023-08-12T01:39:17.067Z,10.48
2023-08-12T01:41:44.014Z,8.48
2023-08-12T01:44:11.200Z,11.30
2023-08-12T01:46:38.046Z,9.40
2023-08-12T01:49:05.340Z,15.63
2023-08-12T01:51:32.835Z,10.38
2023-08-12T01:54:02.486Z,11.70
2023-08-12T01:56:30.604Z,14.55
2023-08-12T01:58:58.471Z,10.80
2023-08-12T02:01:25.918Z,8.18
2023-08-12T02:03:56.392Z,13.55
2023-08-12T02:06:26.784Z,11.80
2023-08-12T02:08:53.639Z,12.43
2023-08-12T02:11:20.487Z,9.82
2023-08-12T02:13:47.392Z,11.32
2023-08-12T02:16:14.182Z,14.00
2023-08-12T02:18:41.039Z,12.20
2023-08-12T02:21:07.790Z,12.25
2023-08-12T02:23:35.088Z,13.23
2023-08-12T02:26:04.126Z,11.48
2023-08-12T02:28:30.902Z,15.25
2023-08-12T02:30:57.641Z,10.07
2023-08-12T02:33:24.428Z,14.30
2023-08-12T02:35:54.732Z,14.00
2023-08-12T02:38:22.117Z,12.52
2023-08-12T02:40:51.849Z,11.43
2023-08-12T02:43:18.995Z,15.95
2023-08-12T02:45:45.889Z,17.30
2023-08-12T02:48:12.735Z,12.82
2023-08-12T02:50:40.451Z,14.40
2023-08-12T02:53:07.909Z,15.63
2023-08-12T02:55:35.167Z,16.48
2023-08-12T02:58:02.600Z,12.73
2023-08-12T03:00:30.485Z,11.57
2023-08-12T03:02:57.438Z,18.80
2023-08-12T03:05:24.384Z,18.25
2023-08-12T03:07:55.290Z,16.95
2023-08-12T03:10:22.814Z,20.63
2023-08-12T03:12:49.649Z,15.70
2023-08-12T03:15:17.825Z,16.05
2023-08-12T03:17:44.768Z,15.65
2023-08-12T03:20:13.731Z,15.45
2023-08-12T03:22:42.314Z,16.55
2023-08-12T03:25:09.839Z,12.85
2023-08-12T03:27:37.298Z,15.30
2023-08-12T03:30:04.990Z,16.00
2023-08-12T03:32:32.852Z,15.18
2023-08-12T03:35:00.222Z,16.70
2023-08-12T03:37:27.788Z,13.50
2023-08-12T03:39:54.966Z,17.17
2023-08-12T03:42:21.806Z,14.60
2023-08-12T03:44:49.732Z,14.15
2023-08-12T03:47:22.782Z,16.23
2023-08-12T03:49:49.632Z,13.95
2023-08-12T03:52:16.594Z,16.13
2023-08-12T03:54:43.455Z,14.15
2023-08-12T03:57:10.875Z,14.40
2023-08-12T03:59:38.186Z,15.80
2023-08-12T04:02:07.915Z,15.98
2023-08-12T04:04:35.088Z,14.63
2023-08-12T04:07:01.943Z,14.23
2023-08-12T04:09:28.726Z,15.15
2023-08-12T04:11:55.657Z,14.68
2023-08-12T04:14:22.575Z,17.25
2023-08-12T04:16:49.892Z,16.75
2023-08-12T04:19:18.172Z,14.20
2023-08-12T04:21:48.333Z,16.30
2023-08-12T04:24:15.074Z,14.10
2023-08-12T04:26:42.099Z,17.70
2023-08-12T04:29:08.957Z,15.55
2023-08-12T04:31:39.082Z,13.52
2023-08-12T04:34:06.814Z,17.60
2023-08-12T04:36:33.666Z,19.42
2023-08-12T04:39:03.148Z,16.95
2023-08-12T04:41:32.629Z,16.35
2023-08-12T04:44:01.666Z,16.23
2023-08-12T04:46:31.218Z,12.75
2023-08-12T04:48:58.001Z,14.63
2023-08-12T04:51:24.810Z,17.38
2023-08-12T04:53:51.588Z,15.05
2023-08-12T04:56:18.547Z,16.92
2023-08-12T04:58:46.031Z,17.58
2023-08-12T05:01:12.845Z,16.60
2023-08-12T05:03:40.228Z,18.35
2023-08-12T05:06:08.729Z,19.10
2023-08-12T05:08:36.101Z,15.70
2023-08-12T05:11:11.464Z,14.10
2023-08-12T05:13:43.261Z,15.18
2023-08-12T05:16:22.507Z,16.20
2023-08-12T05:18:51.216Z,12.20
2023-08-12T05:21:18.106Z,19.13
2023-08-12T05:23:47.742Z,19.30
2023-08-12T05:26:14.673Z,15.63
2023-08-12T05:28:41.756Z,13.88
2023-08-12T05:31:09.097Z,13.63
2023-08-12T05:33:37.386Z,13.63
2023-08-12T05:36:04.673Z,16.52
2023-08-12T05:38:33.717Z,13.43
2023-08-12T05:41:00.433Z,15.55
2023-08-12T05:43:27.245Z,18.17
2023-08-12T05:45:54.044Z,14.45
2023-08-12T05:48:20.868Z,15.88
2023-08-12T05:50:47.631Z,13.77
2023-08-12T05:53:14.385Z,15.73
2023-08-12T05:55:41.174Z,16.08
2023-08-12T05:58:08.591Z,19.60
2023-08-12T06:00:35.317Z,18.17
2023-08-12T06:03:02.083Z,22.17
2023-08-12T06:05:28.953Z,17.67
2023-08-12T06:07:58.089Z,15.65
2023-08-12T06:10:25.370Z,16.42
2023-08-12T06:12:52.060Z,21.05
2023-08-12T06:15:18.869Z,20.52
2023-08-12T06:17:45.725Z,17.38
2023-08-12T06:20:13.223Z,19.35
2023-08-12T06:22:39.972Z,17.25
2023-08-12T06:25:06.996Z,22.10
2023-08-12T06:27:33.845Z,22.50
2023-08-12T06:30:01.200Z,19.27
2023-08-12T06:32:27.998Z,17.45
2023-08-12T06:34:54.728Z,18.05
2023-08-12T06:37:24.470Z,21.52
2023-08-12T06:39:51.841Z,23.65
2023-08-12T06:42:18.598Z,19.83
2023-08-12T06:44:46.499Z,24.02
2023-08-12T06:47:13.293Z,18.40
2023-08-12T06:49:40.827Z,19.40
2023-08-12T06:52:08.331Z,23.15
2023-08-12T06:54:36.583Z,20.60
2023-08-12T06:57:05.505Z,19.70
2023-08-12T06:59:32.475Z,24.52
2023-08-12T07:01:59.233Z,21.67
2023-08-12T07:04:26.519Z,20.05
2023-08-12T07:06:53.806Z,23.40
2023-08-12T07:09:21.867Z,23.45
2023-08-12T07:11:50.134Z,19.38
2023-08-12T07:14:16.899Z,20.23
2023-08-12T07:16:43.798Z,22.95
2023-08-12T07:19:16.527Z,24.27
2023-08-12T07:21:43.885Z,19.17
2023-08-12T07:24:10.783Z,20.52
2023-08-12T07:26:39.774Z,20.08
2023-08-12T07:29:09.881Z,24.25
2023-08-12T07:31:36.624Z,22.00
2023-08-12T07:34:03.516Z,18.30
2023-08-12T07:36:30.257Z,21.60
2023-08-12T07:38:57.224Z,24.02
2023-08-12T07:41:24.027Z,19.90
2023-08-12T07:43:50.747Z,19.00
2023-08-12T07:46:17.575Z,19.67
2023-08-12T07:48:44.419Z,17.52
2023-08-12T07:51:11.737Z,19.42
2023-08-12T07:53:38.496Z,25.27
2023-08-12T07:56:05.285Z,26.02
2023-08-12T07:58:32.025Z,22.67
2023-08-12T08:00:58.798Z,21.60
2023-08-12T08:03:26.467Z,19.88
2023-08-12T08:05:53.418Z,23.70
2023-08-12T08:08:21.287Z,26.13
2023-08-12T08:10:48.142Z,23.67
2023-08-12T08:13:14.940Z,25.50
2023-08-12T08:15:41.679Z,22.65
2023-08-12T08:18:09.211Z,25.92
2023-08-12T08:20:36.562Z,25.17
2023-08-12T08:23:03.796Z,24.90
2023-08-12T08:25:30.924Z,24.40
2023-08-12T08:27:57.866Z,24.73
2023-08-12T08:30:26.333Z,24.27
2023-08-12T08:32:53.433Z,30.15
2023-08-12T08:35:22.855Z,30.92
2023-08-12T08:37:49.840Z,25.20
2023-08-12T08:40:17.820Z,24.85
2023-08-12T08:42:46.728Z,32.75
2023-08-12T08:45:15.595Z,27.92
2023-08-12T08:47:44.180Z,30.83
2023-08-12T08:50:11.640Z,29.65
2023-08-12T08:52:39.115Z,30.60
2023-08-12T08:55:08.243Z,32.67
2023-08-12T09:00:16.473Z,26.67
2023-08-12T09:02:45.487Z,28.33
2023-08-12T09:05:14.279Z,29.17
2023-08-12T09:07:41.659Z,32.92
2023-08-12T09:10:09.200Z,32.28
2023-08-12T09:12:35.994Z,36.70
2023-08-12T09:15:02.739Z,31.27
2023-08-12T09:17:29.745Z,27.55
2023-08-12T09:19:56.776Z,27.30
2023-08-12T09:22:30.226Z,30.50
2023-08-12T09:24:59.975Z,30.10
2023-08-12T09:27:26.894Z,32.22
2023-08-12T09:29:57.985Z,26.30
2023-08-12T09:32:26.094Z,28.70
2023-08-12T09:34:54.484Z,28.38
2023-08-12T09:37:24.538Z,27.05
2023-08-12T09:39:52.870Z,22.40
2023-08-12T09:42:22.588Z,20.55
2023-08-12T09:44:55.015Z,19.58
2023-08-12T09:47:22.008Z,17.35
2023-08-12T09:49:48.986Z,17.58
2023-08-12T09:52:23.811Z,16.73
2023-08-12T09:55:08.012Z,9.05
2023-08-12T09:57:38.960Z,9.43
2023-08-12T10:00:19.284Z,13.15
2023-08-12T10:02:54.999Z,11.93
2023-08-12T10:05:35.751Z,9.40
2023-08-12T10:08:05.197Z,6.00
2023-08-12T10:10:36.603Z,7.57
2023-08-12T10:13:04.640Z,9.05
2023-08-12T10:15:32.877Z,9.50
2023-08-12T10:18:01.698Z,6.53
2023-08-12T10:20:29.317Z,9.18
2023-08-12T10:22:56.564Z,9.48
2023-08-12T10:25:24.997Z,6.55
2023-08-12T10:28:01.594Z,6.63
2023-08-12T10:30:35.295Z,5.43
2023-08-12T10:33:02.299Z,8.15
2023-08-12T10:35:43.191Z,9.00
2023-08-12T10:38:10.026Z,7.82
2023-08-12T10:40:36.852Z,8.30
2023-08-12T10:43:03.961Z,10.10
2023-08-12T10:46:03.168Z,11.23
2023-08-12T10:48:30.301Z,9.65
2023-08-12T10:51:00.086Z,9.50
2023-08-12T10:53:31.695Z,9.25
2023-08-12T10:56:03.801Z,8.68
2023-08-12T10:58:35.435Z,11.80
2023-08-12T11:01:02.482Z,7.37
2023-08-12T11:03:36.270Z,10.73
2023-08-12T11:06:04.757Z,12.65
2023-08-12T11:08:31.476Z,8.63
2023-08-12T11:10:58.525Z,11.30
2023-08-12T11:13:28.594Z,13.07
2023-08-12T11:16:07.658Z,13.88
2023-08-12T11:18:36.213Z,14.57
2023-08-12T11:21:04.608Z,15.05
2023-08-12T11:23:31.371Z,10.93
2023-08-12T11:25:59.213Z,10.50
2023-08-12T11:28:26.364Z,11.85
2023-08-12T11:30:53.207Z,13.25
2023-08-12T11:33:20.001Z,10.85
2023-08-12T11:35:46.898Z,10.32
2023-08-12T11:38:13.671Z,12.52
2023-08-12T11:40:41.146Z,10.85
2023-08-12T11:43:07.924Z,8.20
2023-08-12T11:45:34.789Z,16.65
2023-08-12T11:48:02.274Z,12.65
2023-08-12T11:50:29.179Z,14.10
2023-08-12T11:52:59.724Z,7.40
2023-08-12T11:55:26.921Z,11.30
2023-08-12T11:57:53.971Z,11.52
2023-08-12T12:00:28.583Z,10.20
2023-08-12T12:02:58.040Z,10.45
2023-08-12T12:05:36.289Z,11.50
2023-08-12T12:08:11.304Z,13.50
2023-08-12T12:10:45.573Z,11.45
2023-08-12T12:13:14.068Z,14.95
2023-08-12T12:15:45.748Z,15.48
2023-08-12T12:18:14.407Z,11.55
2023-08-12T12:20:58.055Z,13.43
2023-08-12T12:23:33.094Z,16.90
2023-08-12T12:26:04.234Z,16.15
2023-08-12T12:28:35.446Z,15.57
2023-08-12T12:31:08.420Z,11.00
2023-08-12T12:33:37.408Z,15.32
2023-08-12T12:36:08.329Z,12.65
2023-08-12T12:38:39.002Z,14.32
2023-08-12T12:41:05.882Z,10.82
2023-08-12T12:43:33.965Z,11.07
2023-08-12T12:46:09.908Z,14.93
2023-08-12T12:48:37.329Z,15.52
2023-08-12T12:51:04.367Z,12.32
2023-08-12T12:53:34.696Z,15.18
2023-08-12T12:56:05.145Z,11.60
2023-08-12T12:58:34.319Z,14.10
2023-08-12T13:01:02.377Z,14.15
2023-08-12T13:03:32.628Z,18.77
2023-08-12T13:06:03.340Z,9.80
2023-08-12T13:08:34.312Z,14.40
2023-08-12T13:11:03.200Z,10.82
2023-08-12T13:13:32.530Z,9.43
2023-08-12T13:16:00.347Z,8.02
2023-08-12T13:18:27.625Z,10.90
2023-08-12T13:21:01.611Z,13.63
2023-08-12T13:23:28.606Z,13.57
2023-08-12T13:25:57.093Z,12.07
2023-08-12T13:28:30.021Z,11.77
2023-08-12T13:30:59.077Z,13.15
2023-08-12T13:33:25.940Z,9.05
2023-08-12T13:35:52.866Z,9.45
2023-08-12T13:38:24.859Z,6.07
2023-08-12T13:40:53.041Z,13.48
2023-08-12T13:43:19.938Z,9.32
2023-08-12T13:45:46.914Z,7.93
2023-08-12T13:48:13.876Z,9.77
2023-08-12T13:50:40.728Z,11.57
2023-08-12T13:53:07.654Z,10.63
2023-08-12T13:55:34.601Z,13.60
2023-08-12T13:58:01.512Z,10.63
2023-08-12T14:00:28.507Z,11.93
2023-08-12T14:02:55.382Z,13.57
2023-08-12T14:05:22.318Z,11.05
2023-08-12T14:07:49.349Z,14.52
2023-08-12T14:10:16.295Z,12.20
2023-08-12T14:12:43.151Z,12.52
2023-08-12T14:15:10.401Z,14.32
2023-08-12T14:17:37.600Z,12.82
2023-08-12T14:20:09.073Z,10.77
2023-08-12T14:22:37.086Z,12.38
2023-08-12T14:25:06.239Z,9.95
2023-08-12T14:27:33.391Z,13.38
2023-08-12T14:30:00.259Z,10.52
2023-08-12T14:32:27.258Z,13.48
2023-08-12T14:34:54.182Z,11.05
2023-08-12T14:37:21.088Z,13.25
2023-08-12T14:39:47.957Z,12.32
2023-08-12T14:42:15.034Z,12.43
2023-08-12T14:44:41.903Z,15.75
2023-08-12T14:47:08.978Z,14.52
2023-08-12T14:49:35.944Z,12.23
2023-08-12T14:52:09.739Z,11.10
2023-08-12T14:54:36.915Z,13.77
2023-08-12T14:57:16.370Z,12.50
2023-08-12T14:59:48.886Z,10.50
2023-08-12T15:02:21.904Z,12.25
2023-08-12T15:04:48.819Z,13.48
2023-08-12T15:07:17.659Z,11.02
2023-08-12T15:10:02.820Z,13.90
2023-08-12T15:12:31.257Z,15.73
2023-08-12T15:14:58.365Z,14.05
2023-08-12T15:17:25.799Z,14.60
2023-08-12T15:19:52.884Z,16.23
2023-08-12T15:22:29.626Z,14.93
2023-08-12T15:24:56.674Z,37.10
2023-08-12T15:27:25.561Z,42.22
2023-08-12T15:29:53.499Z,12.68
2023-08-12T15:32:21.759Z,12.05
2023-08-12T15:34:55.995Z,13.80
2023-08-12T15:37:25.428Z,12.60
2023-08-12T15:39:52.444Z,11.93
2023-08-12T15:42:19.535Z,13.10
2023-08-12T15:44:46.424Z,11.88
2023-08-12T15:47:23.264Z,14.88
2023-08-12T15:49:50.140Z,18.23
2023-08-12T15:52:17.034Z,13.05
2023-08-12T15:54:45.432Z,12.82
2023-08-12T15:57:14.051Z,14.57
2023-08-12T15:59:41.317Z,12.38
2023-08-12T16:02:10.431Z,15.15
2023-08-12T16:04:37.681Z,15.13
2023-08-12T16:07:04.750Z,16.13
2023-08-12T16:09:32.949Z,15.45
2023-08-12T16:11:59.945Z,11.77
2023-08-12T16:14:26.908Z,14.98
2023-08-12T16:16:58.049Z,13.48
2023-08-12T16:19:26.999Z,11.43
2023-08-12T16:21:56.531Z,10.88
2023-08-12T16:24:25.815Z,10.73
2023-08-12T16:27:01.031Z,10.10
2023-08-12T16:29:28.703Z,10.30
2023-08-12T16:32:04.735Z,13.75
2023-08-12T16:34:33.815Z,14.32
2023-08-12T16:37:19.698Z,14.15
2023-08-12T16:39:47.514Z,12.50
2023-08-12T16:42:23.027Z,18.48
2023-08-12T16:44:50.149Z,13.10
2023-08-12T16:47:17.098Z,15.60
2023-08-12T16:49:44.009Z,12.18
2023-08-12T16:52:18.264Z,16.42
2023-08-12T16:54:45.154Z,18.38
2023-08-12T16:57:11.999Z,16.63
2023-08-12T16:59:38.909Z,16.75
2023-08-12T17:02:05.849Z,13.35
2023-08-12T17:04:32.619Z,16.05
2023-08-12T17:06:59.468Z,12.82
2023-08-12T17:09:26.808Z,17.45
2023-08-12T17:11:53.628Z,13.52
2023-08-12T17:14:20.466Z,14.18
2023-08-12T17:16:47.329Z,14.70
2023-08-12T17:19:14.088Z,12.63
2023-08-12T17:21:41.042Z,14.02
2023-08-12T17:24:07.999Z,17.35
2023-08-12T17:26:34.750Z,17.50
2023-08-12T17:29:01.661Z,16.25
2023-08-12T17:31:28.511Z,13.73
2023-08-12T17:33:55.285Z,14.07
2023-08-12T17:36:22.107Z,16.67
2023-08-12T17:38:48.996Z,16.88
2023-08-12T17:41:16.075Z,21.10
2023-08-12T17:43:44.817Z,13.40
2023-08-12T17:46:13.982Z,22.30
2023-08-12T17:48:41.262Z,16.33
2023-08-12T17:51:13.832Z,18.33
2023-08-12T17:53:44.924Z,18.67
2023-08-12T17:56:12.220Z,14.40
2023-08-12T17:58:39.426Z,18.88
2023-08-12T18:01:06.548Z,21.17
2023-08-12T18:03:33.699Z,14.73
2023-08-12T18:06:02.181Z,14.77
2023-08-12T18:08:29.039Z,13.77
2023-08-12T18:10:55.767Z,19.98
2023-08-12T18:13:22.541Z,22.27
2023-08-12T18:15:49.800Z,20.65
2023-08-12T18:18:16.588Z,25.42
2023-08-12T18:20:43.414Z,20.25
2023-08-12T18:23:10.207Z,21.58
2023-08-12T18:25:37.055Z,15.68
2023-08-12T18:28:04.922Z,23.83
2023-08-12T18:30:32.441Z,14.10
2023-08-12T18:32:59.419Z,16.75
2023-08-12T18:35:26.211Z,17.20
2023-08-12T18:37:53.026Z,19.70
2023-08-12T18:40:19.815Z,20.10
2023-08-12T18:42:46.647Z,20.77
2023-08-12T18:45:13.490Z,23.95
2023-08-12T18:47:40.495Z,17.52
2023-08-12T18:50:07.634Z,18.70
2023-08-12T18:52:34.452Z,20.75
2023-08-12T18:55:01.332Z,17.90
2023-08-12T18:57:29.120Z,21.08
2023-08-12T18:59:55.877Z,22.27
2023-08-12T19:02:22.627Z,22.50
2023-08-12T19:04:49.503Z,17.80
2023-08-12T19:07:16.298Z,18.38
2023-08-12T19:09:43.021Z,20.05
2023-08-12T19:12:10.893Z,16.13
2023-08-12T19:14:37.945Z,19.80
2023-08-12T19:17:04.886Z,24.38
2023-08-12T19:19:31.615Z,19.08
2023-08-12T19:21:58.389Z,21.48
2023-08-12T19:24:25.200Z,13.18
2023-08-12T19:26:52.241Z,20.75
2023-08-12T19:29:19.235Z,19.90
2023-08-12T19:31:46.128Z,18.42
2023-08-12T19:34:13.173Z,18.90
2023-08-12T19:36:40.286Z,18.83
2023-08-12T19:39:07.270Z,11.43
2023-08-12T19:41:34.273Z,18.83
2023-08-12T19:44:01.207Z,18.58
2023-08-12T19:46:28.315Z,17.70
2023-08-12T19:48:55.679Z,16.75
2023-08-12T19:51:22.515Z,17.02
2023-08-12T19:53:49.440Z,22.42
2023-08-12T19:56:16.350Z,25.30
2023-08-12T19:58:43.334Z,21.33
2023-08-12T20:01:10.277Z,19.75
2023-08-12T20:03:37.340Z,15.80
2023-08-12T20:06:05.476Z,15.65
2023-08-12T20:08:32.394Z,25.52
2023-08-12T20:10:59.335Z,20.65
2023-08-12T20:13:26.586Z,16.85
2023-08-12T20:15:58.916Z,22.83
2023-08-12T20:18:26.579Z,17.27
2023-08-12T20:20:53.915Z,21.08
2023-08-12T20:23:21.693Z,27.52
2023-08-12T20:25:50.175Z,17.17
2023-08-12T20:28:17.132Z,25.33
2023-08-12T20:30:43.881Z,22.15
2023-08-12T20:33:10.852Z,25.45
2023-08-12T20:35:37.689Z,18.75
2023-08-12T20:38:04.798Z,18.60
2023-08-12T20:40:31.769Z,27.48
2023-08-12T20:42:59.139Z,25.58
2023-08-12T20:45:26.063Z,19.17
2023-08-12T20:47:53.185Z,30.05
2023-08-12T20:50:20.076Z,20.67
2023-08-12T20:52:47.030Z,21.27
2023-08-12T20:55:13.812Z,25.50
2023-08-12T20:57:40.720Z,23.42
2023-08-12T21:00:08.186Z,21.55
2023-08-12T21:02:35.111Z,31.45
2023-08-12T21:05:01.948Z,24.23
2023-08-12T21:07:28.700Z,32.25
2023-08-12T21:09:55.528Z,22.35
2023-08-12T21:12:22.788Z,22.20
2023-08-12T21:14:49.586Z,23.38
2023-08-12T21:17:16.396Z,26.60
2023-08-12T21:19:43.176Z,22.80
2023-08-12T21:22:10.005Z,17.30
2023-08-12T21:24:36.971Z,19.23
2023-08-12T21:27:04.104Z,26.02
2023-08-12T21:29:30.955Z,23.15
2023-08-12T21:31:57.729Z,25.13
2023-08-12T21:34:24.816Z,25.58
2023-08-12T21:36:51.979Z,17.90
2023-08-12T21:39:18.792Z,28.52
2023-08-12T21:41:45.611Z,22.42
2023-08-12T21:44:12.374Z,24.30
2023-08-12T21:46:39.348Z,19.73
2023-08-12T21:49:06.227Z,25.77
2023-08-12T21:51:33.081Z,28.10
2023-08-12T21:53:59.911Z,22.40
2023-08-12T21:56:29.526Z,23.00
2023-08-12T21:58:56.637Z,31.08
2023-08-12T22:01:23.568Z,22.33
2023-08-12T22:03:50.495Z,31.52
2023-08-12T22:06:18.434Z,17.38
2023-08-12T22:08:45.739Z,29.75
2023-08-12T22:11:12.501Z,20.83
2023-08-12T22:13:41.807Z,25.42
2023-08-12T22:16:08.707Z,21.80
2023-08-12T22:18:36.712Z,20.48
2023-08-12T22:21:04.637Z,22.92
2023-08-12T22:23:31.452Z,25.52
2023-08-12T22:25:58.214Z,22.55
2023-08-12T22:28:25.034Z,24.35
2023-08-12T22:30:53.591Z,32.90
2023-08-12T22:33:21.796Z,26.95
2023-08-12T22:35:48.694Z,26.45
2023-08-12T22:38:15.567Z,29.42
2023-08-12T22:40:42.383Z,23.90
2023-08-12T22:43:09.256Z,22.85
2023-08-12T22:45:42.001Z,33.40
2023-08-12T22:48:08.830Z,24.52
2023-08-12T22:50:37.802Z,23.90
2023-08-12T22:53:04.998Z,25.95
2023-08-12T22:55:31.962Z,20.83
2023-08-12T22:57:58.922Z,27.17
2023-08-12T23:00:25.723Z,31.38
2023-08-12T23:02:52.814Z,24.80
2023-08-12T23:05:19.678Z,30.77
2023-08-12T23:07:47.287Z,21.45
2023-08-12T23:10:14.324Z,27.05
2023-08-12T23:12:41.566Z,27.15
2023-08-12T23:15:09.281Z,19.60
2023-08-12T23:17:36.069Z,25.15
2023-08-12T23:20:04.594Z,26.20
2023-08-12T23:22:31.379Z,24.05
2023-08-12T23:25:00.709Z,27.98
2023-08-12T23:27:28.364Z,27.25
2023-08-12T23:29:55.582Z,26.60
2023-08-12T23:32:23.576Z,27.60
2023-08-12T23:34:50.513Z,39.75
2023-08-12T23:37:17.481Z,29.52
2023-08-12T23:39:44.481Z,20.35
2023-08-12T23:42:11.344Z,25.98
2023-08-12T23:44:38.127Z,23.73
2023-08-12T23:47:05.206Z,25.67
2023-08-12T23:49:32.016Z,26.23
2023-08-12T23:51:59.333Z,26.42
2023-08-12T23:54:26.294Z,25.17
2023-08-12T23:56:53.140Z,27.85
2023-08-12T23:59:19.920Z,30.10
